Time;durP1;ratioP1;P1;durP2;ratioP2;P2;SDS_P1;SDS_P2;PMS_P1;PMS_P2;Temp;Humidity;BMP_temperature;BMP_pressure;BME280_temperature;BME280_humidity;BME280_pressure;Samples;Min_cycle;Max_cycle;Signal;HPM_P1;HPM_P2
2022/11/07 00:01:57;;;;;;;12.43;5.93;;;;;;;;;;5057044;28;20057;-78
2022/11/07 00:04:23;;;;;;;13.20;6.45;;;;;;;;;;5055702;28;20048;-78
2022/11/07 00:06:48;;;;;;;10.85;5.85;;;;;;;;;;5057285;28;20028;-78
2022/11/07 00:09:13;;;;;;;11.10;5.97;;;;;;;;;;5057520;28;20029;-79
2022/11/07 00:11:38;;;;;;;12.63;5.95;;;;;;;;;;5061693;28;20076;-79
2022/11/07 00:14:04;;;;;;;12.18;5.93;;;;;;;;;;5061851;28;20025;-79
2022/11/07 00:16:30;;;;;;;12.98;5.47;;;;;;;;;;5061528;28;20025;-79
2022/11/07 00:18:56;;;;;;;11.15;5.82;;;;;;;;;;5039814;28;20029;-79
2022/11/07 00:21:21;;;;;;;10.35;5.97;;;;;;;;;;5055288;28;20020;-79
2022/11/07 00:23:46;;;;;;;12.38;6.35;;;;;;;;;;5039039;28;20077;-79
2022/11/07 00:26:13;;;;;;;11.40;5.88;;;;;;;;;;5056783;28;20056;-79
2022/11/07 00:28:40;;;;;;;12.13;6.38;;;;;;;;;;5056718;28;20056;-78
2022/11/07 00:31:07;;;;;;;12.20;5.95;;;;;;;;;;5056315;28;20033;-79
2022/11/07 00:33:33;;;;;;;13.98;6.22;;;;;;;;;;5038464;28;20025;-78
2022/11/07 00:35:59;;;;;;;11.88;5.40;;;;;;;;;;5056461;28;20029;-79
2022/11/07 00:38:24;;;;;;;13.25;6.53;;;;;;;;;;5055841;28;20029;-78
2022/11/07 00:40:57;;;;;;;10.15;5.32;;;;;;;;;;5056316;28;20057;-79
2022/11/07 00:43:23;;;;;;;10.38;5.80;;;;;;;;;;5055895;28;20017;-78
2022/11/07 00:45:48;;;;;;;12.95;7.22;;;;;;;;;;5056379;28;20031;-78
2022/11/07 00:48:13;;;;;;;14.50;6.35;;;;;;;;;;5054611;28;20025;-78
2022/11/07 00:50:39;;;;;;;12.77;6.03;;;;;;;;;;5054235;28;20033;-77
2022/11/07 00:53:05;;;;;;;12.88;6.53;;;;;;;;;;5034939;28;20465;-77
2022/11/07 00:55:31;;;;;;;13.52;7.03;;;;;;;;;;5053857;28;20031;-77
2022/11/07 00:57:56;;;;;;;13.25;6.85;;;;;;;;;;5055039;28;20057;-78
2022/11/07 01:00:22;;;;;;;12.88;7.15;;;;;;;;;;5057189;28;20033;-78
2022/11/07 01:05:09;;;;;;;13.63;7.03;;;;;;;;;;5056616;28;20032;-78
2022/11/07 01:05:32;;;;;;;14.68;7.22;;;;;;;;;;5057003;28;20029;-77
2022/11/07 01:07:57;;;;;;;18.88;7.60;;;;;;;;;;5059192;28;20035;-78
2022/11/07 01:10:23;;;;;;;13.63;6.93;;;;;;;;;;5059200;28;20025;-79
2022/11/07 01:12:48;;;;;;;13.55;7.07;;;;;;;;;;5059114;28;20029;-78
2022/11/07 01:15:13;;;;;;;16.58;7.00;;;;;;;;;;5058670;28;20535;-78
2022/11/07 01:17:38;;;;;;;13.05;7.22;;;;;;;;;;5059283;28;20028;-79
2022/11/07 01:20:05;;;;;;;13.45;6.78;;;;;;;;;;5058918;28;20029;-78
2022/11/07 01:22:30;;;;;;;15.23;7.50;;;;;;;;;;5059809;28;20064;-78
2022/11/07 01:24:55;;;;;;;13.57;7.10;;;;;;;;;;5059282;28;20401;-78
2022/11/07 01:27:20;;;;;;;12.93;6.68;;;;;;;;;;5059868;28;20025;-78
2022/11/07 01:29:46;;;;;;;12.50;7.30;;;;;;;;;;5041895;28;20029;-78
2022/11/07 01:32:11;;;;;;;14.95;7.57;;;;;;;;;;5058940;28;20025;-78
2022/11/07 01:34:36;;;;;;;14.73;7.47;;;;;;;;;;5059347;28;20044;-79
2022/11/07 01:37:01;;;;;;;14.40;7.35;;;;;;;;;;5059375;28;20044;-79
2022/11/07 01:39:27;;;;;;;17.38;7.63;;;;;;;;;;5059713;28;20087;-78
2022/11/07 01:41:52;;;;;;;14.20;7.82;;;;;;;;;;5058151;28;20048;-79
2022/11/07 01:44:17;;;;;;;16.13;7.70;;;;;;;;;;5059364;28;20025;-78
2022/11/07 01:46:44;;;;;;;16.93;8.87;;;;;;;;;;5059111;28;20037;-78
2022/11/07 01:49:16;;;;;;;15.45;7.10;;;;;;;;;;5041526;28;20265;-79
2022/11/07 01:51:58;;;;;;;15.43;7.70;;;;;;;;;;5059132;28;20032;-78
2022/11/07 01:54:26;;;;;;;20.02;8.32;;;;;;;;;;5059560;28;20032;-79
2022/11/07 01:56:54;;;;;;;19.05;8.07;;;;;;;;;;5059072;28;20037;-79
2022/11/07 01:59:23;;;;;;;16.02;7.00;;;;;;;;;;5061335;28;20036;-78
2022/11/07 02:01:49;;;;;;;15.63;8.45;;;;;;;;;;5045206;28;20032;-79
2022/11/07 02:04:16;;;;;;;12.02;6.28;;;;;;;;;;5062593;28;20393;-79
2022/11/07 02:06:45;;;;;;;16.73;8.43;;;;;;;;;;5059735;28;20115;-78
2022/11/07 02:09:10;;;;;;;15.88;8.18;;;;;;;;;;5056941;28;20103;-78
2022/11/07 02:11:36;;;;;;;17.00;8.82;;;;;;;;;;5040459;28;20064;-78
2022/11/07 02:14:01;;;;;;;16.45;8.40;;;;;;;;;;5058633;28;20025;-78
2022/11/07 02:16:27;;;;;;;18.90;8.30;;;;;;;;;;5041329;28;20026;-78
2022/11/07 02:18:53;;;;;;;19.10;8.68;;;;;;;;;;5058192;28;20063;-77
2022/11/07 02:21:32;;;;;;;18.67;8.25;;;;;;;;;;5059593;28;20082;-79
2022/11/07 02:24:03;;;;;;;17.17;7.70;;;;;;;;;;5055602;28;20496;-78
2022/11/07 02:26:29;;;;;;;16.98;7.93;;;;;;;;;;5058534;28;20150;-78
2022/11/07 02:28:56;;;;;;;16.08;8.13;;;;;;;;;;5059701;28;20044;-78
2022/11/07 02:31:21;;;;;;;16.38;7.65;;;;;;;;;;5058822;28;20021;-78
2022/11/07 02:33:46;;;;;;;16.45;7.97;;;;;;;;;;5059728;28;20493;-78
2022/11/07 02:36:16;;;;;;;15.90;7.95;;;;;;;;;;5059397;28;20032;-78
2022/11/07 02:38:43;;;;;;;19.02;8.10;;;;;;;;;;5058500;28;20086;-78
2022/11/07 02:41:20;;;;;;;15.65;7.78;;;;;;;;;;5058315;28;20024;-78
2022/11/07 02:43:50;;;;;;;15.65;8.00;;;;;;;;;;5059205;28;20044;-78
2022/11/07 02:46:16;;;;;;;16.95;8.02;;;;;;;;;;5059531;28;20028;-79
2022/11/07 02:48:47;;;;;;;17.55;8.07;;;;;;;;;;5058898;28;20400;-78
2022/11/07 02:51:12;;;;;;;17.33;7.78;;;;;;;;;;5058179;28;20021;-78
2022/11/07 02:53:38;;;;;;;15.57;8.32;;;;;;;;;;5040536;28;20059;-78
2022/11/07 02:56:03;;;;;;;17.67;8.85;;;;;;;;;;5040314;28;20028;-79
2022/11/07 02:58:29;;;;;;;17.30;7.32;;;;;;;;;;5058736;28;20021;-79
2022/11/07 03:00:54;;;;;;;20.10;8.68;;;;;;;;;;5057856;28;20078;-78
2022/11/07 03:03:19;;;;;;;15.77;8.23;;;;;;;;;;5039981;28;20020;-78
2022/11/07 03:05:45;;;;;;;17.92;8.60;;;;;;;;;;5058270;28;20082;-78
2022/11/07 03:08:10;;;;;;;16.90;7.85;;;;;;;;;;5059051;28;20486;-78
2022/11/07 03:10:35;;;;;;;17.75;8.77;;;;;;;;;;5058229;28;20100;-78
2022/11/07 03:13:01;;;;;;;18.80;8.40;;;;;;;;;;5058455;28;20470;-78
2022/11/07 03:15:26;;;;;;;17.85;7.97;;;;;;;;;;5058743;28;20033;-78
2022/11/07 03:17:51;;;;;;;15.45;7.43;;;;;;;;;;5040771;28;20021;-78
2022/11/07 03:20:17;;;;;;;18.25;8.55;;;;;;;;;;5054616;28;20021;-78
2022/11/07 03:22:42;;;;;;;18.65;7.90;;;;;;;;;;5057388;28;20025;-78
2022/11/07 03:25:07;;;;;;;17.55;8.60;;;;;;;;;;5056122;28;20032;-79
2022/11/07 03:27:33;;;;;;;17.00;8.25;;;;;;;;;;5060173;28;20116;-79
2022/11/07 03:29:58;;;;;;;15.82;7.47;;;;;;;;;;5057491;28;20029;-78
2022/11/07 03:32:23;;;;;;;15.52;7.40;;;;;;;;;;5043429;28;20420;-79
2022/11/07 03:34:49;;;;;;;17.00;8.55;;;;;;;;;;5043657;28;20056;-79
2022/11/07 03:37:14;;;;;;;17.00;7.70;;;;;;;;;;5058121;28;20032;-79
2022/11/07 03:39:39;;;;;;;16.20;7.47;;;;;;;;;;5055658;28;20493;-77
2022/11/07 03:42:05;;;;;;;15.73;8.15;;;;;;;;;;5053087;28;20021;-77
2022/11/07 03:44:30;;;;;;;17.42;7.80;;;;;;;;;;5053501;28;20150;-77
2022/11/07 03:46:55;;;;;;;17.13;7.95;;;;;;;;;;5056105;28;20040;-77
2022/11/07 03:49:20;;;;;;;15.90;7.88;;;;;;;;;;5056302;28;20029;-78
2022/11/07 03:51:46;;;;;;;14.98;7.68;;;;;;;;;;5057758;28;20452;-78
2022/11/07 03:54:11;;;;;;;17.58;7.35;;;;;;;;;;5041414;28;20052;-78
2022/11/07 03:56:36;;;;;;;17.50;8.48;;;;;;;;;;5059070;28;20035;-78
2022/11/07 03:59:02;;;;;;;13.75;7.82;;;;;;;;;;5057746;28;20029;-78
2022/11/07 04:01:27;;;;;;;16.73;8.40;;;;;;;;;;5058257;28;20028;-78
2022/11/07 04:03:52;;;;;;;16.27;8.45;;;;;;;;;;5059187;28;20532;-79
2022/11/07 04:06:18;;;;;;;17.63;8.45;;;;;;;;;;5056318;28;20115;-78
2022/11/07 04:08:43;;;;;;;16.55;8.18;;;;;;;;;;5057198;28;20024;-78
2022/11/07 04:17:17;;;;;;;16.75;8.48;;;;;;;;;;5056016;28;20029;-78
2022/11/07 04:19:25;;;;;;;15.55;7.63;;;;;;;;;;5062576;28;20509;-79
2022/11/07 04:21:50;;;;;;;16.65;7.47;;;;;;;;;;5044297;28;20033;-79
2022/11/07 04:24:15;;;;;;;19.23;8.55;;;;;;;;;;5056312;28;20025;-79
2022/11/07 04:29:24;;;;;;;15.85;7.88;;;;;;;;;;5048188;28;20031;-79
2022/11/07 04:31:50;;;;;;;18.48;8.30;;;;;;;;;;5062712;28;20057;-79
2022/11/07 04:34:15;;;;;;;15.40;7.88;;;;;;;;;;5061443;28;20032;-79
2022/11/07 04:36:40;;;;;;;13.75;7.40;;;;;;;;;;5056599;28;20021;-78
2022/11/07 04:39:06;;;;;;;18.40;7.50;;;;;;;;;;5056892;28;20029;-78
2022/11/07 04:41:31;;;;;;;15.10;7.97;;;;;;;;;;5065571;28;20104;-79
2022/11/07 04:43:56;;;;;;;18.48;8.07;;;;;;;;;;5066414;28;20036;-79
2022/11/07 04:46:23;;;;;;;17.73;7.60;;;;;;;;;;5048567;28;20056;-79
2022/11/07 04:48:49;;;;;;;15.00;7.47;;;;;;;;;;5064951;28;20029;-78
2022/11/07 04:51:17;;;;;;;15.70;8.13;;;;;;;;;;5061361;28;20086;-78
2022/11/07 04:53:42;;;;;;;16.15;8.18;;;;;;;;;;5043504;28;20025;-78
2022/11/07 04:56:08;;;;;;;17.48;7.88;;;;;;;;;;5061365;28;20440;-78
2022/11/07 04:58:33;;;;;;;15.85;7.43;;;;;;;;;;5061673;28;20449;-79
2022/11/07 05:00:58;;;;;;;15.52;7.85;;;;;;;;;;5061922;28;20033;-78
2022/11/07 05:03:23;;;;;;;14.65;7.47;;;;;;;;;;5063574;28;20031;-78
2022/11/07 05:05:49;;;;;;;12.65;7.18;;;;;;;;;;5061829;28;20025;-79
2022/11/07 05:08:14;;;;;;;15.68;7.75;;;;;;;;;;5061139;28;20089;-79
2022/11/07 05:10:42;;;;;;;15.73;8.43;;;;;;;;;;5063202;28;20092;-79
2022/11/07 05:13:07;;;;;;;17.65;8.65;;;;;;;;;;5059354;28;20025;-79
2022/11/07 05:15:32;;;;;;;16.75;8.48;;;;;;;;;;5060360;28;20116;-77
2022/11/07 05:17:57;;;;;;;17.23;8.15;;;;;;;;;;5060219;28;20021;-79
2022/11/07 05:20:34;;;;;;;17.20;8.05;;;;;;;;;;5061576;28;20552;-78
2022/11/07 05:23:17;;;;;;;14.95;7.97;;;;;;;;;;5060965;28;20028;-80
2022/11/07 05:25:52;;;;;;;17.65;8.45;;;;;;;;;;5061859;28;20049;-79
2022/11/07 05:28:23;;;;;;;15.00;7.85;;;;;;;;;;5060399;28;20047;-78
2022/11/07 05:30:48;;;;;;;18.27;8.95;;;;;;;;;;5062798;28;20397;-78
2022/11/07 05:33:16;;;;;;;17.55;9.00;;;;;;;;;;5062655;28;20028;-78
2022/11/07 05:35:42;;;;;;;15.27;8.18;;;;;;;;;;5060266;28;20469;-78
2022/11/07 05:38:07;;;;;;;14.95;8.40;;;;;;;;;;5062533;28;20025;-78
2022/11/07 05:40:37;;;;;;;19.27;8.90;;;;;;;;;;5044645;28;20021;-79
2022/11/07 05:43:05;;;;;;;17.60;7.90;;;;;;;;;;5044026;28;20390;-78
2022/11/07 05:45:32;;;;;;;16.60;8.50;;;;;;;;;;5044168;28;20536;-79
2022/11/07 05:48:01;;;;;;;16.75;7.93;;;;;;;;;;5060800;28;20040;-79
2022/11/07 05:50:28;;;;;;;16.08;7.88;;;;;;;;;;5060793;28;20064;-79
2022/11/07 05:52:53;;;;;;;18.27;9.50;;;;;;;;;;5061789;28;20036;-79
2022/11/07 05:55:19;;;;;;;15.80;8.52;;;;;;;;;;5062006;28;20017;-78
2022/11/07 05:57:45;;;;;;;14.30;7.65;;;;;;;;;;5059777;28;20486;-78
2022/11/07 06:00:11;;;;;;;16.08;8.70;;;;;;;;;;5058657;28;20031;-79
2022/11/07 06:02:36;;;;;;;16.38;7.95;;;;;;;;;;5038920;28;20017;-79
2022/11/07 06:05:02;;;;;;;19.60;9.00;;;;;;;;;;5060232;28;20029;-79
2022/11/07 06:07:27;;;;;;;17.52;8.75;;;;;;;;;;5060928;28;20037;-78
2022/11/07 06:09:52;;;;;;;17.77;8.48;;;;;;;;;;5060683;28;20028;-78
2022/11/07 06:12:18;;;;;;;14.50;7.90;;;;;;;;;;5041483;28;20428;-78
2022/11/07 06:14:43;;;;;;;18.67;8.65;;;;;;;;;;5058779;28;20048;-79
2022/11/07 06:17:08;;;;;;;16.92;8.18;;;;;;;;;;5040039;28;20049;-77
2022/11/07 06:19:34;;;;;;;17.88;9.27;;;;;;;;;;5043235;28;20020;-78
2022/11/07 06:22:00;;;;;;;17.42;8.90;;;;;;;;;;5059424;28;20046;-79
2022/11/07 06:24:25;;;;;;;17.35;8.77;;;;;;;;;;5058842;28;20100;-79
2022/11/07 06:26:53;;;;;;;15.55;8.23;;;;;;;;;;5060225;28;20063;-79
2022/11/07 06:29:18;;;;;;;20.58;8.85;;;;;;;;;;5063754;28;20076;-79
2022/11/07 06:31:44;;;;;;;16.85;8.40;;;;;;;;;;5060319;28;20106;-78
2022/11/07 06:34:09;;;;;;;18.58;8.75;;;;;;;;;;5058366;28;20394;-78
2022/11/07 06:36:35;;;;;;;14.45;7.95;;;;;;;;;;5058193;28;20051;-78
2022/11/07 06:39:00;;;;;;;16.58;8.15;;;;;;;;;;5059077;28;20031;-78
2022/11/07 06:41:25;;;;;;;16.80;8.40;;;;;;;;;;5059884;28;20110;-78
2022/11/07 06:43:51;;;;;;;19.52;8.75;;;;;;;;;;5056575;28;20020;-77
2022/11/07 06:46:18;;;;;;;17.92;8.80;;;;;;;;;;5057092;28;20025;-79
2022/11/07 06:48:44;;;;;;;18.92;8.45;;;;;;;;;;5057672;28;20025;-79
2022/11/07 06:51:09;;;;;;;15.13;7.65;;;;;;;;;;5059216;28;20079;-78
2022/11/07 06:53:35;;;;;;;17.17;8.70;;;;;;;;;;5061903;28;20044;-79
2022/11/07 06:56:03;;;;;;;16.60;8.32;;;;;;;;;;5059409;28;20032;-79
2022/11/07 06:58:28;;;;;;;19.17;8.55;;;;;;;;;;5061927;28;20080;-78
2022/11/07 07:00:57;;;;;;;16.30;8.27;;;;;;;;;;5059172;28;20055;-78
2022/11/07 07:03:23;;;;;;;16.60;7.90;;;;;;;;;;5041106;28;20059;-78
2022/11/07 07:05:48;;;;;;;16.80;8.40;;;;;;;;;;5059562;28;20025;-78
2022/11/07 07:08:13;;;;;;;19.63;8.93;;;;;;;;;;5060054;28;20378;-79
2022/11/07 07:10:44;;;;;;;16.65;7.82;;;;;;;;;;5060647;28;20028;-79
2022/11/07 07:13:11;;;;;;;14.75;7.55;;;;;;;;;;5042769;28;20397;-78
2022/11/07 07:15:37;;;;;;;22.13;7.70;;;;;;;;;;5060253;28;20029;-79
2022/11/07 07:18:02;;;;;;;22.60;7.93;;;;;;;;;;5059897;28;20021;-79
2022/11/07 07:20:29;;;;;;;19.95;6.85;;;;;;;;;;5041834;28;20025;-79
2022/11/07 07:22:54;;;;;;;13.50;6.38;;;;;;;;;;5060799;28;20014;-79
2022/11/07 07:25:20;;;;;;;19.95;7.07;;;;;;;;;;5061075;28;20055;-79
2022/11/07 07:27:45;;;;;;;16.02;7.15;;;;;;;;;;5059628;28;20432;-78
2022/11/07 07:30:11;;;;;;;13.68;6.53;;;;;;;;;;5040783;28;20094;-78
2022/11/07 07:32:37;;;;;;;12.68;6.75;;;;;;;;;;5059451;28;20029;-79
2022/11/07 07:35:03;;;;;;;14.38;6.22;;;;;;;;;;5059408;28;20512;-78
2022/11/07 07:37:28;;;;;;;13.70;6.43;;;;;;;;;;5059463;28;20104;-79
2022/11/07 07:39:54;;;;;;;14.30;6.28;;;;;;;;;;5057623;28;20486;-79
2022/11/07 07:42:19;;;;;;;12.48;6.55;;;;;;;;;;5056523;28;20061;-78
2022/11/07 07:44:44;;;;;;;12.07;6.30;;;;;;;;;;5056699;28;20029;-78
2022/11/07 07:47:09;;;;;;;12.02;5.75;;;;;;;;;;5037928;28;20115;-78
2022/11/07 07:49:35;;;;;;;11.35;6.10;;;;;;;;;;5040160;28;20051;-79
2022/11/07 07:52:00;;;;;;;10.25;5.82;;;;;;;;;;5059001;28;20040;-79
2022/11/07 07:54:25;;;;;;;12.07;5.65;;;;;;;;;;5060610;28;20549;-77
2022/11/07 07:56:51;;;;;;;18.25;6.18;;;;;;;;;;5055610;28;20025;-78
2022/11/07 07:59:16;;;;;;;12.32;5.72;;;;;;;;;;5055386;28;20021;-78
2022/11/07 08:01:41;;;;;;;10.85;5.65;;;;;;;;;;5056595;28;20029;-78
2022/11/07 08:04:06;;;;;;;13.55;5.90;;;;;;;;;;5058205;28;20025;-78
2022/11/07 08:06:34;;;;;;;10.70;5.93;;;;;;;;;;5058766;28;20385;-79
2022/11/07 08:08:59;;;;;;;11.18;5.45;;;;;;;;;;5040485;28;20435;-79
2022/11/07 08:11:24;;;;;;;11.63;5.85;;;;;;;;;;5057980;28;20033;-79
2022/11/07 08:13:49;;;;;;;10.40;5.78;;;;;;;;;;5058290;28;20085;-78
2022/11/07 08:16:15;;;;;;;12.60;5.90;;;;;;;;;;5061467;28;20021;-79
2022/11/07 08:18:40;;;;;;;13.30;5.28;;;;;;;;;;5061852;28;20547;-79
2022/11/07 08:21:06;;;;;;;11.55;5.47;;;;;;;;;;5060309;28;20177;-78
2022/11/07 08:23:31;;;;;;;9.70;5.65;;;;;;;;;;5042622;28;20104;-78
2022/11/07 08:25:58;;;;;;;14.85;5.57;;;;;;;;;;5060877;28;20043;-77
2022/11/07 08:28:26;;;;;;;10.60;5.78;;;;;;;;;;5042581;28;20025;-77
2022/11/07 08:31:05;;;;;;;11.05;5.40;;;;;;;;;;5041493;28;20028;-78
2022/11/07 08:33:30;;;;;;;11.02;5.55;;;;;;;;;;5042537;28;20069;-79
2022/11/07 08:35:59;;;;;;;10.60;5.40;;;;;;;;;;5059739;28;20490;-78
2022/11/07 08:38:25;;;;;;;13.32;5.43;;;;;;;;;;5059677;28;20378;-77
2022/11/07 08:40:50;;;;;;;12.23;5.55;;;;;;;;;;5045300;28;20025;-79
2022/11/07 08:43:17;;;;;;;10.02;5.45;;;;;;;;;;5060921;28;20017;-77
2022/11/07 08:45:43;;;;;;;11.07;5.43;;;;;;;;;;5059491;28;20028;-78
2022/11/07 08:48:08;;;;;;;13.15;5.68;;;;;;;;;;5060040;28;20020;-78
2022/11/07 08:50:33;;;;;;;12.48;5.47;;;;;;;;;;5039038;28;20087;-78
2022/11/07 08:52:59;;;;;;;10.23;4.78;;;;;;;;;;5055301;28;20029;-77
2022/11/07 08:55:24;;;;;;;9.65;4.97;;;;;;;;;;5058708;28;20027;-77
2022/11/07 08:57:50;;;;;;;9.32;4.53;;;;;;;;;;5060178;28;20033;-78
2022/11/07 09:00:15;;;;;;;10.30;4.47;;;;;;;;;;5059379;28;20359;-77
2022/11/07 09:02:41;;;;;;;7.90;3.78;;;;;;;;;;5059362;28;20025;-78
2022/11/07 09:05:07;;;;;;;8.05;3.50;;;;;;;;;;5060404;28;20040;-78
2022/11/07 09:07:33;;;;;;;7.03;4.20;;;;;;;;;;5041914;28;20021;-78
2022/11/07 09:09:58;;;;;;;7.03;3.45;;;;;;;;;;5058619;28;20386;-78
2022/11/07 09:12:24;;;;;;;6.82;3.58;;;;;;;;;;5059355;28;20021;-78
2022/11/07 09:14:49;;;;;;;6.40;2.75;;;;;;;;;;5041716;28;20025;-78
2022/11/07 09:17:14;;;;;;;5.22;2.40;;;;;;;;;;5060437;28;20532;-78
2022/11/07 09:19:40;;;;;;;3.97;2.30;;;;;;;;;;5042786;28;20024;-79
2022/11/07 09:22:05;;;;;;;4.78;2.67;;;;;;;;;;5058759;28;20032;-79
2022/11/07 09:24:30;;;;;;;4.70;2.35;;;;;;;;;;5059432;28;20046;-79
2022/11/07 09:26:55;;;;;;;5.40;2.33;;;;;;;;;;5058019;28;20021;-77
2022/11/07 09:29:21;;;;;;;4.88;2.38;;;;;;;;;;5057497;28;20046;-77
2022/11/07 09:31:46;;;;;;;3.88;2.05;;;;;;;;;;5058842;28;20231;-78
2022/11/07 09:34:11;;;;;;;4.45;2.30;;;;;;;;;;5038094;28;20107;-78
2022/11/07 09:36:37;;;;;;;4.15;2.10;;;;;;;;;;5060630;28;20032;-79
2022/11/07 09:39:02;;;;;;;4.40;2.45;;;;;;;;;;5059185;28;20385;-79
2022/11/07 09:42:05;;;;;;;4.97;2.03;;;;;;;;;;5044330;28;20025;-79
2022/11/07 09:44:45;;;;;;;6.57;2.58;;;;;;;;;;5062101;28;20025;-78
2022/11/07 09:47:10;;;;;;;5.00;2.60;;;;;;;;;;5061298;28;20029;-78
2022/11/07 09:49:45;;;;;;;9.37;2.20;;;;;;;;;;5042054;28;20445;-78
2022/11/07 09:52:27;;;;;;;5.03;2.28;;;;;;;;;;5060275;28;20324;-78
2022/11/07 09:54:59;;;;;;;4.45;2.35;;;;;;;;;;5044354;28;20029;-78
2022/11/07 09:57:26;;;;;;;5.30;2.20;;;;;;;;;;5061834;28;20049;-78
2022/11/07 09:59:54;;;;;;;3.65;1.90;;;;;;;;;;5059897;28;20079;-78
2022/11/07 10:02:24;;;;;;;6.57;1.80;;;;;;;;;;5040156;28;20478;-79
2022/11/07 10:04:58;;;;;;;2.58;1.50;;;;;;;;;;5059963;28;20029;-79
2022/11/07 10:07:32;;;;;;;3.53;1.70;;;;;;;;;;5059548;28;20032;-77
2022/11/07 10:10:10;;;;;;;2.70;1.55;;;;;;;;;;5061182;28;20033;-78
2022/11/07 10:12:55;;;;;;;4.50;1.70;;;;;;;;;;5060889;28;20017;-78
2022/11/07 10:15:32;;;;;;;3.75;1.60;;;;;;;;;;5059623;28;20024;-77
2022/11/07 10:18:20;;;;;;;4.18;1.40;;;;;;;;;;5060739;28;20449;-78
2022/11/07 10:20:59;;;;;;;7.70;1.27;;;;;;;;;;5060028;28;20017;-78
2022/11/07 10:23:42;;;;;;;7.07;1.70;;;;;;;;;;5058992;28;20021;-78
2022/11/07 10:26:10;;;;;;;1.65;0.90;;;;;;;;;;5042731;28;20025;-78
2022/11/07 10:28:47;;;;;;;1.35;0.90;;;;;;;;;;5060235;28;20021;-78
2022/11/07 10:31:14;;;;;;;1.85;1.02;;;;;;;;;;5043225;28;20033;-78
2022/11/07 10:33:53;;;;;;;2.92;0.95;;;;;;;;;;5059541;28;20541;-79
2022/11/07 10:36:27;;;;;;;1.50;0.80;;;;;;;;;;5060718;28;20088;-79
2022/11/07 10:38:53;;;;;;;2.67;0.93;;;;;;;;;;5060400;28;20056;-78
2022/11/07 10:41:30;;;;;;;2.25;1.00;;;;;;;;;;5060665;28;20036;-79
2022/11/07 10:44:02;;;;;;;4.70;0.95;;;;;;;;;;5042756;28;20021;-79
2022/11/07 10:46:41;;;;;;;1.67;0.70;;;;;;;;;;5042730;28;20371;-78
2022/11/07 10:49:20;;;;;;;2.20;0.85;;;;;;;;;;5060048;28;20067;-78
2022/11/07 10:51:46;;;;;;;5.03;0.90;;;;;;;;;;5059982;28;20051;-78
2022/11/07 10:54:26;;;;;;;3.28;1.15;;;;;;;;;;5063548;28;20028;-77
2022/11/07 10:57:02;;;;;;;1.25;0.63;;;;;;;;;;5067504;28;20032;-78
2022/11/07 10:59:29;;;;;;;2.35;0.90;;;;;;;;;;5048342;28;20120;-77
2022/11/07 11:01:57;;;;;;;2.88;0.90;;;;;;;;;;5066709;28;20036;-76
2022/11/07 11:04:28;;;;;;;6.78;1.00;;;;;;;;;;5066925;28;20029;-76
2022/11/07 11:06:58;;;;;;;1.98;0.88;;;;;;;;;;5046759;28;20025;-77
2022/11/07 11:09:29;;;;;;;2.20;0.93;;;;;;;;;;5064638;28;20033;-77
2022/11/07 11:11:55;;;;;;;5.55;1.00;;;;;;;;;;5068761;28;20027;-77
2022/11/07 11:14:20;;;;;;;4.60;0.70;;;;;;;;;;5053683;28;20048;-77
2022/11/07 11:16:53;;;;;;;4.43;1.20;;;;;;;;;;5067171;28;20021;-78
2022/11/07 11:19:22;;;;;;;3.83;1.10;;;;;;;;;;5066286;28;20082;-79
2022/11/07 11:21:49;;;;;;;5.90;1.13;;;;;;;;;;5066415;28;20029;-78
2022/11/07 11:24:30;;;;;;;1.80;0.70;;;;;;;;;;5067006;28;20045;-78
2022/11/07 11:27:03;;;;;;;5.50;1.00;;;;;;;;;;5049927;28;20024;-77
2022/11/07 11:29:40;;;;;;;5.93;1.00;;;;;;;;;;5067952;28;20029;-76
2022/11/07 11:32:15;;;;;;;1.58;0.88;;;;;;;;;;5072558;28;20036;-77
2022/11/07 11:34:52;;;;;;;4.18;1.20;;;;;;;;;;5073944;28;20031;-77
2022/11/07 11:37:23;;;;;;;3.78;1.00;;;;;;;;;;5073472;28;20029;-77
2022/11/07 11:39:57;;;;;;;3.40;0.60;;;;;;;;;;5068705;28;20036;-77
2022/11/07 11:42:47;;;;;;;2.45;1.02;;;;;;;;;;5068565;28;20041;-78
2022/11/07 11:45:20;;;;;;;2.00;0.73;;;;;;;;;;5070703;28;20009;-77
2022/11/07 11:48:00;;;;;;;3.55;0.90;;;;;;;;;;5072879;28;20041;-77
2022/11/07 11:50:47;;;;;;;3.03;0.95;;;;;;;;;;5070943;28;20029;-77
2022/11/07 11:53:16;;;;;;;3.88;0.95;;;;;;;;;;5052137;28;20032;-77
2022/11/07 11:55:53;;;;;;;2.08;0.90;;;;;;;;;;5064875;28;20062;-78
2022/11/07 11:58:28;;;;;;;3.90;0.90;;;;;;;;;;5054695;28;20123;-77
2022/11/07 12:01:06;;;;;;;3.50;0.90;;;;;;;;;;5055486;28;20029;-78
2022/11/07 12:03:51;;;;;;;3.38;0.75;;;;;;;;;;5055281;28;20389;-78
2022/11/07 12:06:32;;;;;;;3.45;0.90;;;;;;;;;;5055639;28;20441;-77
2022/11/07 12:09:36;;;;;;;6.72;1.00;;;;;;;;;;5056155;28;20029;-77
2022/11/07 12:12:11;;;;;;;2.90;1.03;;;;;;;;;;5026172;28;20040;-78
2022/11/07 12:14:52;;;;;;;2.85;1.13;;;;;;;;;;5055369;28;20067;-78
2022/11/07 12:17:30;;;;;;;1.95;0.93;;;;;;;;;;5056956;28;20037;-78
2022/11/07 12:20:11;;;;;;;1.67;0.80;;;;;;;;;;5056517;28;20099;-78
2022/11/07 12:23:01;;;;;;;6.57;1.20;;;;;;;;;;5056435;28;20024;-78
2022/11/07 12:25:37;;;;;;;3.47;1.10;;;;;;;;;;5056037;28;20053;-78
2022/11/07 12:28:17;;;;;;;4.05;1.08;;;;;;;;;;5055363;28;20040;-78
2022/11/07 12:31:11;;;;;;;3.40;0.90;;;;;;;;;;5057320;28;20115;-78
2022/11/07 12:33:51;;;;;;;2.17;1.00;;;;;;;;;;5038641;28;20213;-78
2022/11/07 12:36:33;;;;;;;3.80;0.80;;;;;;;;;;5038022;28;20036;-78
2022/11/07 12:39:07;;;;;;;2.28;1.00;;;;;;;;;;5037491;28;20094;-77
2022/11/07 12:41:47;;;;;;;2.38;0.80;;;;;;;;;;5055935;28;20100;-78
2022/11/07 12:44:54;;;;;;;1.98;0.93;;;;;;;;;;5053445;28;20021;-78
2022/11/07 12:47:32;;;;;;;1.33;0.70;;;;;;;;;;5056356;28;20478;-77
2022/11/07 12:50:04;;;;;;;3.13;1.00;;;;;;;;;;5056281;28;20033;-78
2022/11/07 12:52:39;;;;;;;2.28;0.90;;;;;;;;;;5039424;28;20025;-78
2022/11/07 12:55:24;;;;;;;1.65;0.80;;;;;;;;;;5054593;28;20028;-79
2022/11/07 12:57:52;;;;;;;5.22;1.20;;;;;;;;;;5057303;28;20087;-78
2022/11/07 13:00:26;;;;;;;3.92;0.98;;;;;;;;;;5036145;28;20082;-78
2022/11/07 13:03:11;;;;;;;8.95;1.20;;;;;;;;;;5060012;28;20029;-78
2022/11/07 13:05:43;;;;;;;3.80;0.90;;;;;;;;;;5041369;28;20036;-78
2022/11/07 13:08:19;;;;;;;3.10;0.90;;;;;;;;;;5039463;28;20382;-78
2022/11/07 13:10:55;;;;;;;3.58;0.90;;;;;;;;;;5058708;28;20082;-77
2022/11/07 13:13:26;;;;;;;2.00;0.90;;;;;;;;;;5056547;28;20124;-78
2022/11/07 13:15:52;;;;;;;3.38;0.90;;;;;;;;;;5058011;28;20021;-78
2022/11/07 13:18:23;;;;;;;2.40;0.90;;;;;;;;;;5057385;28;20028;-78
2022/11/07 13:21:01;;;;;;;4.75;0.90;;;;;;;;;;5058151;28;20036;-77
2022/11/07 13:23:27;;;;;;;3.72;1.15;;;;;;;;;;5057755;28;20397;-78
2022/11/07 13:26:01;;;;;;;1.30;0.70;;;;;;;;;;5057664;28;20100;-77
2022/11/07 13:28:42;;;;;;;;;;;;;;;;;;5059576;28;20021;-77
2022/11/07 13:31:33;;;;;;;1.63;0.80;;;;;;;;;;5060549;28;20419;-79
2022/11/07 13:34:27;;;;;;;2.38;0.80;;;;;;;;;;5042174;28;20044;-78
2022/11/07 13:37:00;;;;;;;4.80;0.90;;;;;;;;;;5042069;28;20037;-78
2022/11/07 13:39:28;;;;;;;3.35;0.85;;;;;;;;;;5057347;28;20036;-78
2022/11/07 13:41:53;;;;;;;2.08;0.85;;;;;;;;;;5058172;28;20418;-78
2022/11/07 13:44:32;;;;;;;6.05;0.80;;;;;;;;;;5059071;28;20025;-77
2022/11/07 13:47:03;;;;;;;5.82;1.00;;;;;;;;;;5059152;28;20372;-77
2022/11/07 13:49:38;;;;;;;3.45;1.00;;;;;;;;;;5057505;28;20025;-77
2022/11/07 13:52:09;;;;;;;2.40;0.95;;;;;;;;;;5038046;28;20374;-77
2022/11/07 13:55:17;;;;;;;3.22;0.90;;;;;;;;;;5055635;28;20021;-77
2022/11/07 13:57:49;;;;;;;2.90;0.93;;;;;;;;;;5019534;28;20039;-78
2022/11/07 14:00:19;;;;;;;4.00;0.93;;;;;;;;;;5059052;28;20364;-78
2022/11/07 14:03:03;;;;;;;2.97;0.90;;;;;;;;;;5059095;28;20032;-78
2022/11/07 14:05:33;;;;;;;3.72;0.95;;;;;;;;;;5059549;28;20024;-78
2022/11/07 14:08:04;;;;;;;4.40;1.00;;;;;;;;;;5059203;28;20037;-78
2022/11/07 14:10:36;;;;;;;5.50;1.40;;;;;;;;;;5057761;28;20032;-78
2022/11/07 14:13:34;;;;;;;2.50;1.00;;;;;;;;;;5055767;28;20021;-77
2022/11/07 14:16:06;;;;;;;2.50;0.82;;;;;;;;;;5055660;28;20024;-78
2022/11/07 14:18:39;;;;;;;3.05;1.10;;;;;;;;;;5057399;28;20075;-78
2022/11/07 14:21:04;;;;;;;4.25;0.90;;;;;;;;;;5058628;28;20021;-79
2022/11/07 14:23:31;;;;;;;1.98;0.82;;;;;;;;;;5056724;28;20513;-78
2022/11/07 14:26:01;;;;;;;4.40;0.90;;;;;;;;;;5056856;28;20036;-78
2022/11/07 14:28:44;;;;;;;5.15;1.75;;;;;;;;;;5059226;28;20073;-77
2022/11/07 14:31:17;;;;;;;3.07;1.17;;;;;;;;;;5056983;28;20104;-78
2022/11/07 14:33:51;;;;;;;4.57;1.00;;;;;;;;;;5057078;28;20806;-78
2022/11/07 14:36:17;;;;;;;1.42;0.90;;;;;;;;;;5057136;28;20021;-78
2022/11/07 14:38:55;;;;;;;4.28;1.00;;;;;;;;;;5055524;28;20081;-77
2022/11/07 14:41:21;;;;;;;4.25;1.35;;;;;;;;;;5055951;28;20048;-78
2022/11/07 14:43:47;;;;;;;5.35;2.05;;;;;;;;;;5056472;28;20044;-78
2022/11/07 14:46:18;;;;;;;2.90;1.10;;;;;;;;;;5037396;28;20025;-77
2022/11/07 14:48:46;;;;;;;3.38;0.93;;;;;;;;;;5055143;28;20048;-77
2022/11/07 14:51:14;;;;;;;6.60;1.10;;;;;;;;;;5054318;28;20027;-76
2022/11/07 14:53:54;;;;;;;4.18;1.02;;;;;;;;;;5055094;28;20096;-78
2022/11/07 14:56:25;;;;;;;1.75;0.88;;;;;;;;;;5057236;28;20075;-78
2022/11/07 14:58:50;;;;;;;4.82;1.40;;;;;;;;;;5039688;28;20482;-78